Hovedside
METAR-TAF:

METAR-TAF

Lufthavner :

Västerås lufthavn

Västerås, Sverige

breddegrad: 59-35N, lengdegrad: 016-38E, høyde over havet: 6 m

Gjeldene værobservasjon

Denne rapporten ble laget for 26 minutter siden, klokken 17:20 UTC
Vind 11 kt fra Nord-nordøst
Temperatur 12°C
Luftfuktighet 88%
Trykk 1016 hPa
Sikt 10 km eller mer

METAR: ESOW 271720Z AUTO 02011KT 9999 OVC005/// 12/10 Q1016

Tid: 19:46 (17:46 UTC)

Varsel

Denne rapporten ble laget for 9 timer og 16 minutter siden, klokken 08:30 UTC
Varsel gyldig fra 27. klokken 09 UTC til 27. klokken 13 UTC
Vind 12 kt fra Nord-nordøst
Sikt: 6000 m
Overskyet i en høyde av 300 ft
Midlertidig
fra 27. klokken 09 UTC til 27. klokken 11 UTC
Sikt: 3000 m
dis
Blir
fra 27. klokken 09 UTC til 27. klokken 11 UTC
Brutte skyer i en høyde av 700 ft
Blir
fra 27. klokken 11 UTC til 27. klokken 13 UTC
Spredte skyer i en høyde av 900 ft

TAF: ESOW 270830Z 2709/2713 02012KT 6000 OVC003 TEMPO 2709/2711 3000 BR BECMG 2709/2711 BKN007 BECMG 2711/2713 SCT009

Værobservasjoner og værvarsel for over 4000 flyplasser (METAR- og TAF-rapporter).

Tilgjengelige stasjoner er representert av de røde og gule prikkene på kartet.

Hold musepekeren over prikken for å se navnet på stasjonen.

Klikk så for å se værobservasjoner og -varsler.

For å forandre kartet kan du klikke på den grønne knappen med svart kryss for å zoome inn, på den grønne knappen med strek for å zoome ut, eller på de grønne pilene for å se tilstøtende kart.


METAR-TAF: